Time,TemperatureF,DewpointF,PressureIn,WindDirection,WindDirectionDegrees,WindSpeedMPH,WindSpeedGustMPH,Humidity,HourlyPrecipIn,Conditions,Clouds,dailyrainin,SoftwareType,DateUTC
2013-04-02 00:14:00,26.5,15.0,30.03,NNW,331,14.0,20.0,61,0.00,,,0.00,weatherlink.com 1.10,2013-04-02 04:14:00,
2013-04-02 00:29:00,26.6,14.0,30.03,NNW,328,14.0,22.0,60,0.00,,,0.00,weatherlink.com 1.10,2013-04-02 04:29:00,
2013-04-02 00:44:00,26.7,15.0,30.03,NNW,330,8.0,18.0,61,0.00,,,0.00,weatherlink.com 1.10,2013-04-02 04:44:00,
2013-04-02 00:59:00,26.9,15.0,30.02,North,355,9.0,21.0,61,0.00,,,0.00,weatherlink.com 1.10,2013-04-02 04:59:00,
2013-04-02 01:14:00,27.0,15.0,30.02,NNW,331,10.0,19.0,61,0.00,,,0.00,weatherlink.com 1.10,2013-04-02 05:14:00,
2013-04-02 01:29:00,27.2,16.0,30.02,NW,323,16.0,23.0,62,0.00,,,0.00,weatherlink.com 1.10,2013-04-02 05:29:00,
2013-04-02 01:44:00,27.4,17.0,30.02,NNW,327,19.0,19.0,64,0.00,,,0.00,weatherlink.com 1.10,2013-04-02 05:44:00,
2013-04-02 01:59:00,27.8,16.0,30.02,NNW,327,10.0,23.0,62,0.00,,,0.00,weatherlink.com 1.10,2013-04-02 05:59:00,
2013-04-02 02:14:00,28.0,17.0,30.02,NW,313,14.0,23.0,63,0.00,,,0.00,weatherlink.com 1.10,2013-04-02 06:14:00,
2013-04-02 02:29:00,28.1,17.0,30.02,NW,324,16.0,20.0,64,0.00,,,0.00,weatherlink.com 1.10,2013-04-02 06:29:00,
2013-04-02 02:44:00,28.2,17.0,30.02,NNW,344,16.0,25.0,62,0.00,,,0.00,weatherlink.com 1.10,2013-04-02 06:44:00,
2013-04-02 02:59:00,27.9,18.0,30.02,NNW,345,13.0,22.0,66,0.00,,,0.00,weatherlink.com 1.10,2013-04-02 06:59:00,
2013-04-02 03:14:00,27.8,18.0,30.02,NW,321,9.0,21.0,66,0.00,,,0.00,weatherlink.com 1.10,2013-04-02 07:14:00,
2013-04-02 03:29:00,27.6,18.0,30.02,NW,324,9.0,17.0,66,0.00,,,0.00,weatherlink.com 1.10,2013-04-02 07:29:00,
2013-04-02 03:44:00,27.6,18.0,30.02,NW,315,13.0,19.0,67,0.00,,,0.00,weatherlink.com 1.10,2013-04-02 07:44:00,
2013-04-02 03:59:00,27.5,19.0,30.02,NNW,335,12.0,18.0,69,0.00,,,0.00,weatherlink.com 1.10,2013-04-02 07:59:00,
2013-04-02 04:14:00,27.4,18.0,30.02,NW,325,14.0,18.0,69,0.00,,,0.00,weatherlink.com 1.10,2013-04-02 08:14:00,
2013-04-02 04:29:00,27.1,20.0,30.02,NW,319,12.0,17.0,73,0.00,,,0.00,weatherlink.com 1.10,2013-04-02 08:29:00,
2013-04-02 04:44:00,27.0,20.0,30.02,NNW,346,12.0,19.0,74,0.00,,,0.00,weatherlink.com 1.10,2013-04-02 08:44:00,
2013-04-02 04:59:00,26.9,20.0,30.02,NNW,331,9.0,14.0,76,0.00,,,0.00,weatherlink.com 1.10,2013-04-02 08:59:00,
2013-04-02 05:14:00,27.0,20.0,30.02,North,355,11.0,16.0,76,0.00,,,0.00,weatherlink.com 1.10,2013-04-02 09:14:00,
2013-04-02 05:29:00,26.9,19.0,30.03,NW,316,9.0,20.0,73,0.00,,,0.00,weatherlink.com 1.10,2013-04-02 09:29:00,
2013-04-02 05:44:00,26.9,20.0,30.03,North,355,7.0,19.0,74,0.00,,,0.00,weatherlink.com 1.10,2013-04-02 09:44:00,
2013-04-02 05:59:00,26.8,19.0,30.03,NNW,342,15.0,19.0,73,0.00,,,0.00,weatherlink.com 1.10,2013-04-02 09:59:00,
2013-04-02 06:14:00,26.6,19.0,30.03,NNW,334,7.0,17.0,73,0.00,,,0.00,weatherlink.com 1.10,2013-04-02 10:14:00,
2013-04-02 06:29:00,26.5,19.0,30.04,NNW,335,11.0,15.0,72,0.00,,,0.00,weatherlink.com 1.10,2013-04-02 10:29:00,
2013-04-02 06:44:00,26.7,19.0,30.05,North,355,17.0,17.0,72,0.00,,,0.00,weatherlink.com 1.10,2013-04-02 10:44:00,
2013-04-02 07:00:00,26.6,18.0,30.05,NNW,347,10.0,21.0,69,0.00,,,0.00,weatherlink.com 1.10,2013-04-02 11:00:00,
2013-04-02 07:15:00,26.4,17.0,30.05,North,351,13.0,17.0,69,0.00,,,0.00,weatherlink.com 1.10,2013-04-02 11:15:00,
2013-04-02 07:30:00,26.4,19.0,30.05,NNW,333,8.0,16.0,72,0.00,,,0.00,weatherlink.com 1.10,2013-04-02 11:30:00,
2013-04-02 07:45:00,26.3,18.0,30.06,NNW,338,9.0,16.0,72,0.00,,,0.00,weatherlink.com 1.10,2013-04-02 11:45:00,
2013-04-02 08:00:00,26.3,18.0,30.06,NNE,22,13.0,18.0,71,0.00,,,0.00,weatherlink.com 1.10,2013-04-02 12:00:00,
2013-04-02 08:15:00,26.5,18.0,30.07,North,355,16.0,22.0,69,0.00,,,0.00,weatherlink.com 1.10,2013-04-02 12:15:00,
2013-04-02 08:30:00,26.6,18.0,30.07,NNW,347,13.0,19.0,69,0.00,,,0.00,weatherlink.com 1.10,2013-04-02 12:30:00,
2013-04-02 08:45:00,27.3,18.0,30.08,NW,322,12.0,23.0,68,0.00,,,0.00,weatherlink.com 1.10,2013-04-02 12:45:00,
2013-04-02 09:00:00,26.8,18.0,30.08,NW,309,13.0,23.0,70,0.00,,,0.00,weatherlink.com 1.10,2013-04-02 13:00:00,
2013-04-02 09:15:00,27.3,19.0,30.09,NW,320,9.0,21.0,71,0.00,,,0.00,weatherlink.com 1.10,2013-04-02 13:15:00,
2013-04-02 09:30:00,27.5,19.0,30.09,NW,314,9.0,19.0,69,0.00,,,0.00,weatherlink.com 1.10,2013-04-02 13:30:00,
2013-04-02 09:45:00,27.4,18.0,30.09,NNW,347,9.0,20.0,69,0.00,,,0.00,weatherlink.com 1.10,2013-04-02 13:45:00,
2013-04-02 10:00:00,28.3,19.0,30.10,North,355,16.0,19.0,68,0.00,,,0.00,weatherlink.com 1.10,2013-04-02 14:00:00,
2013-04-02 10:15:00,27.9,17.0,30.09,NNW,333,13.0,26.0,64,0.00,,,0.00,weatherlink.com 1.10,2013-04-02 14:15:00,
2013-04-02 10:30:00,27.6,18.0,30.10,NW,309,15.0,22.0,68,0.00,,,0.00,weatherlink.com 1.10,2013-04-02 14:30:00,
2013-04-02 10:45:00,27.9,19.0,30.11,NW,320,16.0,25.0,68,0.00,,,0.00,weatherlink.com 1.10,2013-04-02 14:45:00,
2013-04-02 11:00:00,27.9,19.0,30.11,NW,314,9.0,21.0,69,0.00,,,0.00,weatherlink.com 1.10,2013-04-02 15:00:00,
2013-04-02 11:15:00,28.2,18.0,30.11,NW,323,13.0,26.0,65,0.00,,,0.00,weatherlink.com 1.10,2013-04-02 15:15:00,
2013-04-02 11:30:00,27.8,19.0,30.11,NW,308,11.0,22.0,69,0.00,,,0.00,weatherlink.com 1.10,2013-04-02 15:30:00,
2013-04-02 11:45:00,28.2,19.0,30.12,NNW,343,22.0,22.0,68,0.00,,,0.00,weatherlink.com 1.10,2013-04-02 15:45:00,
2013-04-02 12:00:00,27.9,19.0,30.12,NNW,346,19.0,23.0,70,0.00,,,0.00,weatherlink.com 1.10,2013-04-02 16:00:00,
2013-04-02 12:15:00,28.4,20.0,30.12,NNW,342,21.0,23.0,71,0.00,,,0.00,weatherlink.com 1.10,2013-04-02 16:15:00,
2013-04-02 12:30:00,28.4,21.0,30.12,NW,315,10.0,20.0,73,0.00,,,0.00,weatherlink.com 1.10,2013-04-02 16:30:00,
2013-04-02 12:45:00,29.6,19.0,30.12,NW,317,14.0,25.0,64,0.00,,,0.00,weatherlink.com 1.10,2013-04-02 16:45:00,
2013-04-02 13:00:00,29.8,20.0,30.12,NW,304,23.0,27.0,66,0.00,,,0.00,weatherlink.com 1.10,2013-04-02 17:00:00,
2013-04-02 13:15:00,28.2,21.0,30.12,WNW,296,16.0,23.0,73,0.00,,,0.00,weatherlink.com 1.10,2013-04-02 17:15:00,
2013-04-02 13:30:00,29.3,22.0,30.12,NW,318,12.0,24.0,73,0.00,,,0.00,weatherlink.com 1.10,2013-04-02 17:30:00,
2013-04-02 13:45:00,27.7,22.0,30.12,NW,314,11.0,19.0,78,0.00,,,0.00,weatherlink.com 1.10,2013-04-02 17:45:00,
2013-04-02 14:00:00,29.2,21.0,30.12,NW,307,14.0,27.0,72,0.00,,,0.00,weatherlink.com 1.10,2013-04-02 18:00:00,
2013-04-02 14:15:00,29.1,22.0,30.13,WNW,296,19.0,27.0,75,0.00,,,0.00,weatherlink.com 1.10,2013-04-02 18:15:00,
2013-04-02 14:30:00,29.6,20.0,30.13,NW,316,13.0,24.0,68,0.00,,,0.00,weatherlink.com 1.10,2013-04-02 18:30:00,
2013-04-02 14:45:00,29.1,20.0,30.13,NW,326,15.0,22.0,70,0.00,,,0.00,weatherlink.com 1.10,2013-04-02 18:45:00,
2013-04-02 15:00:00,30.1,18.0,30.13,NNW,336,17.0,25.0,62,0.00,,,0.00,weatherlink.com 1.10,2013-04-02 19:00:00,
2013-04-02 15:15:00,30.5,18.0,30.13,NNW,344,19.0,28.0,60,0.00,,,0.00,weatherlink.com 1.10,2013-04-02 19:15:00,
2013-04-02 15:30:00,30.8,17.0,30.14,NNW,329,19.0,23.0,58,0.00,,,0.00,weatherlink.com 1.10,2013-04-02 19:30:00,
2013-04-02 15:45:00,30.7,18.0,30.14,NW,305,11.0,22.0,59,0.00,,,0.00,weatherlink.com 1.10,2013-04-02 19:45:00,
2013-04-02 16:00:00,30.7,18.0,30.14,NW,321,15.0,23.0,60,0.00,,,0.00,weatherlink.com 1.10,2013-04-02 20:00:00,
2013-04-02 16:15:00,30.2,18.0,30.14,NNW,342,18.0,22.0,62,0.00,,,0.00,weatherlink.com 1.10,2013-04-02 20:15:00,
2013-04-02 16:30:00,30.5,18.0,30.14,NNW,340,13.0,25.0,60,0.00,,,0.00,weatherlink.com 1.10,2013-04-02 20:30:00,
2013-04-02 16:45:00,30.9,18.0,30.14,NW,325,18.0,20.0,58,0.00,,,0.00,weatherlink.com 1.10,2013-04-02 20:45:00,
2013-04-02 17:00:00,30.9,19.0,30.14,North,355,14.0,17.0,62,0.00,,,0.00,weatherlink.com 1.10,2013-04-02 21:00:00,
2013-04-02 17:15:00,31.0,19.0,30.14,NNW,340,18.0,19.0,61,0.00,,,0.00,weatherlink.com 1.10,2013-04-02 21:15:00,
2013-04-02 17:30:00,31.4,19.0,30.15,NNW,333,17.0,19.0,60,0.00,,,0.00,weatherlink.com 1.10,2013-04-02 21:30:00,
2013-04-02 18:01:00,30.7,17.0,30.16,NNW,342,9.0,19.0,58,0.00,,,0.00,weatherlink.com 1.10,2013-04-02 22:01:00,
2013-04-02 18:16:00,29.7,17.0,30.16,NNW,347,13.0,16.0,60,0.00,,,0.00,weatherlink.com 1.10,2013-04-02 22:16:00,
2013-04-02 18:31:00,30.2,17.0,30.16,NNW,347,10.0,17.0,59,0.00,,,0.00,weatherlink.com 1.10,2013-04-02 22:31:00,
2013-04-02 18:46:00,30.4,17.0,30.16,North,349,10.0,20.0,58,0.00,,,0.00,weatherlink.com 1.10,2013-04-02 22:46:00,
2013-04-02 19:16:00,29.5,17.0,30.18,NNW,340,10.0,15.0,59,0.00,,,0.00,weatherlink.com 1.10,2013-04-02 23:16:00,
2013-04-02 19:31:00,29.4,17.0,30.18,North,351,10.0,16.0,60,0.00,,,0.00,weatherlink.com 1.10,2013-04-02 23:31:00,
2013-04-02 19:46:00,29.3,17.0,30.18,North,360,11.0,16.0,60,0.00,,,0.00,weatherlink.com 1.10,2013-04-02 23:46:00,
2013-04-02 20:46:00,28.5,16.0,30.19,NNE,12,12.0,21.0,60,0.00,,,0.00,weatherlink.com 1.10,2013-04-03 00:46:00,
2013-04-02 22:01:00,26.8,15.0,30.22,NNE,17,16.0,21.0,62,0.00,,,0.00,weatherlink.com 1.10,2013-04-03 02:01:00,
2013-04-02 22:16:00,26.6,15.0,30.23,NNW,332,15.0,19.0,63,0.00,,,0.00,weatherlink.com 1.10,2013-04-03 02:16:00,
2013-04-02 22:31:00,26.7,16.0,30.22,North,355,18.0,23.0,63,0.00,,,0.00,weatherlink.com 1.10,2013-04-03 02:31:00,
2013-04-02 22:46:00,26.6,15.0,30.22,NNE,32,12.0,22.0,62,0.00,,,0.00,weatherlink.com 1.10,2013-04-03 02:46:00,
2013-04-02 23:16:00,26.8,16.0,30.22,NE,36,9.0,24.0,64,0.00,,,0.00,weatherlink.com 1.10,2013-04-03 03:16:00,
2013-04-02 23:31:00,26.8,16.0,30.22,NNE,16,9.0,26.0,63,0.00,,,0.00,weatherlink.com 1.10,2013-04-03 03:31:00,
2013-04-02 23:46:00,26.7,15.0,30.22,North,9,15.0,24.0,62,0.00,,,0.00,weatherlink.com 1.10,2013-04-03 03:46:00,